sensor_id;sensor_type;location;lat;lon;timestamp;P1;durP1;ratioP1;P2;durP2;ratioP2
5133;SDS011;2585;48.696;10.066;2023-04-24T00:01:21;1.60;;;1.50;;
5133;SDS011;2585;48.696;10.066;2023-04-24T00:03:47;1.83;;;1.40;;
5133;SDS011;2585;48.696;10.066;2023-04-24T00:06:14;2.53;;;1.50;;
5133;SDS011;2585;48.696;10.066;2023-04-24T00:08:43;1.30;;;1.20;;
5133;SDS011;2585;48.696;10.066;2023-04-24T00:11:10;2.73;;;1.60;;
5133;SDS011;2585;48.696;10.066;2023-04-24T00:13:37;4.27;;;1.23;;
5133;SDS011;2585;48.696;10.066;2023-04-24T00:16:04;5.90;;;1.33;;
5133;SDS011;2585;48.696;10.066;2023-04-24T00:18:31;1.60;;;1.50;;
5133;SDS011;2585;48.696;10.066;2023-04-24T00:20:58;1.40;;;1.30;;
5133;SDS011;2585;48.696;10.066;2023-04-24T00:23:25;1.80;;;1.50;;
5133;SDS011;2585;48.696;10.066;2023-04-24T00:25:51;2.30;;;1.40;;
5133;SDS011;2585;48.696;10.066;2023-04-24T00:28:18;1.57;;;1.10;;
5133;SDS011;2585;48.696;10.066;2023-04-24T00:30:45;2.97;;;1.40;;
5133;SDS011;2585;48.696;10.066;2023-04-24T00:33:12;1.80;;;1.30;;
5133;SDS011;2585;48.696;10.066;2023-04-24T00:35:38;2.70;;;1.30;;
5133;SDS011;2585;48.696;10.066;2023-04-24T00:38:06;1.80;;;1.30;;
5133;SDS011;2585;48.696;10.066;2023-04-24T00:40:33;1.50;;;1.30;;
5133;SDS011;2585;48.696;10.066;2023-04-24T00:43:00;1.40;;;1.20;;
5133;SDS011;2585;48.696;10.066;2023-04-24T00:45:26;3.63;;;1.50;;
5133;SDS011;2585;48.696;10.066;2023-04-24T00:47:53;1.20;;;1.10;;
5133;SDS011;2585;48.696;10.066;2023-04-24T00:50:20;1.70;;;1.43;;
5133;SDS011;2585;48.696;10.066;2023-04-24T00:52:48;1.47;;;1.33;;
5133;SDS011;2585;48.696;10.066;2023-04-24T00:55:15;1.70;;;1.50;;
5133;SDS011;2585;48.696;10.066;2023-04-24T00:57:42;1.30;;;1.20;;
5133;SDS011;2585;48.696;10.066;2023-04-24T01:00:10;2.50;;;1.23;;
5133;SDS011;2585;48.696;10.066;2023-04-24T01:02:41;1.73;;;1.33;;
5133;SDS011;2585;48.696;10.066;2023-04-24T01:05:13;2.57;;;1.57;;
5133;SDS011;2585;48.696;10.066;2023-04-24T01:07:41;3.33;;;1.70;;
5133;SDS011;2585;48.696;10.066;2023-04-24T01:10:11;2.27;;;1.60;;
5133;SDS011;2585;48.696;10.066;2023-04-24T01:12:40;1.87;;;1.77;;
5133;SDS011;2585;48.696;10.066;2023-04-24T01:15:07;3.63;;;1.90;;
5133;SDS011;2585;48.696;10.066;2023-04-24T01:17:34;1.50;;;1.40;;
5133;SDS011;2585;48.696;10.066;2023-04-24T01:20:02;2.00;;;1.50;;
5133;SDS011;2585;48.696;10.066;2023-04-24T01:22:34;4.30;;;1.63;;
5133;SDS011;2585;48.696;10.066;2023-04-24T01:25:02;1.60;;;1.50;;
5133;SDS011;2585;48.696;10.066;2023-04-24T01:27:29;3.30;;;1.60;;
5133;SDS011;2585;48.696;10.066;2023-04-24T01:29:56;2.57;;;2.00;;
5133;SDS011;2585;48.696;10.066;2023-04-24T01:32:24;3.03;;;1.90;;
5133;SDS011;2585;48.696;10.066;2023-04-24T01:34:51;3.13;;;1.63;;
5133;SDS011;2585;48.696;10.066;2023-04-24T01:37:19;2.70;;;1.30;;
5133;SDS011;2585;48.696;10.066;2023-04-24T01:39:45;3.63;;;1.50;;
5133;SDS011;2585;48.696;10.066;2023-04-24T01:42:12;3.70;;;1.60;;
5133;SDS011;2585;48.696;10.066;2023-04-24T01:44:40;1.83;;;1.70;;
5133;SDS011;2585;48.696;10.066;2023-04-24T01:47:08;2.60;;;2.03;;
5133;SDS011;2585;48.696;10.066;2023-04-24T01:49:35;1.50;;;1.40;;
5133;SDS011;2585;48.696;10.066;2023-04-24T01:52:02;2.57;;;1.80;;
5133;SDS011;2585;48.696;10.066;2023-04-24T01:54:29;1.67;;;1.57;;
5133;SDS011;2585;48.696;10.066;2023-04-24T01:56:56;1.73;;;1.47;;
5133;SDS011;2585;48.696;10.066;2023-04-24T01:59:23;3.20;;;1.40;;
5133;SDS011;2585;48.696;10.066;2023-04-24T02:01:51;2.07;;;1.70;;
5133;SDS011;2585;48.696;10.066;2023-04-24T02:04:18;2.57;;;1.40;;
5133;SDS011;2585;48.696;10.066;2023-04-24T02:06:45;2.20;;;1.60;;
5133;SDS011;2585;48.696;10.066;2023-04-24T02:09:12;1.67;;;1.57;;
5133;SDS011;2585;48.696;10.066;2023-04-24T02:11:38;1.70;;;1.60;;
5133;SDS011;2585;48.696;10.066;2023-04-24T02:14:05;2.03;;;1.43;;
5133;SDS011;2585;48.696;10.066;2023-04-24T02:16:32;1.63;;;1.53;;
5133;SDS011;2585;48.696;10.066;2023-04-24T02:18:59;2.97;;;1.80;;
5133;SDS011;2585;48.696;10.066;2023-04-24T02:21:26;1.93;;;1.70;;
5133;SDS011;2585;48.696;10.066;2023-04-24T02:23:53;3.43;;;1.90;;
5133;SDS011;2585;48.696;10.066;2023-04-24T02:26:20;2.13;;;1.90;;
5133;SDS011;2585;48.696;10.066;2023-04-24T02:28:47;1.57;;;1.47;;
5133;SDS011;2585;48.696;10.066;2023-04-24T02:31:14;2.43;;;1.50;;
5133;SDS011;2585;48.696;10.066;2023-04-24T02:33:41;1.90;;;1.57;;
5133;SDS011;2585;48.696;10.066;2023-04-24T02:36:08;8.30;;;1.70;;
5133;SDS011;2585;48.696;10.066;2023-04-24T02:38:35;1.83;;;1.50;;
5133;SDS011;2585;48.696;10.066;2023-04-24T02:41:01;1.60;;;1.50;;
5133;SDS011;2585;48.696;10.066;2023-04-24T02:43:32;1.70;;;1.50;;
5133;SDS011;2585;48.696;10.066;2023-04-24T02:45:59;4.13;;;1.60;;
5133;SDS011;2585;48.696;10.066;2023-04-24T02:48:26;3.63;;;1.60;;
5133;SDS011;2585;48.696;10.066;2023-04-24T02:50:53;2.10;;;1.70;;
5133;SDS011;2585;48.696;10.066;2023-04-24T02:53:20;1.70;;;1.60;;
5133;SDS011;2585;48.696;10.066;2023-04-24T02:55:47;3.10;;;1.40;;
5133;SDS011;2585;48.696;10.066;2023-04-24T02:58:13;1.50;;;1.40;;
5133;SDS011;2585;48.696;10.066;2023-04-24T03:00:40;3.17;;;1.30;;
5133;SDS011;2585;48.696;10.066;2023-04-24T03:03:07;2.37;;;1.67;;
5133;SDS011;2585;48.696;10.066;2023-04-24T03:05:34;2.47;;;2.27;;
5133;SDS011;2585;48.696;10.066;2023-04-24T03:08:01;1.97;;;1.63;;
5133;SDS011;2585;48.696;10.066;2023-04-24T03:10:28;2.13;;;1.80;;
5133;SDS011;2585;48.696;10.066;2023-04-24T03:12:54;1.63;;;1.40;;
5133;SDS011;2585;48.696;10.066;2023-04-24T03:15:21;1.63;;;1.37;;
5133;SDS011;2585;48.696;10.066;2023-04-24T03:17:48;3.10;;;1.80;;
5133;SDS011;2585;48.696;10.066;2023-04-24T03:20:15;7.63;;;1.67;;
5133;SDS011;2585;48.696;10.066;2023-04-24T03:22:42;4.77;;;2.30;;
5133;SDS011;2585;48.696;10.066;2023-04-24T03:25:09;2.93;;;1.50;;
5133;SDS011;2585;48.696;10.066;2023-04-24T03:27:35;2.17;;;1.70;;
5133;SDS011;2585;48.696;10.066;2023-04-24T03:30:03;2.83;;;1.70;;
5133;SDS011;2585;48.696;10.066;2023-04-24T03:32:30;2.60;;;1.73;;
5133;SDS011;2585;48.696;10.066;2023-04-24T03:34:58;2.23;;;1.53;;
5133;SDS011;2585;48.696;10.066;2023-04-24T03:37:25;2.37;;;1.77;;
5133;SDS011;2585;48.696;10.066;2023-04-24T03:39:52;5.90;;;2.10;;
5133;SDS011;2585;48.696;10.066;2023-04-24T03:42:19;3.73;;;1.83;;
5133;SDS011;2585;48.696;10.066;2023-04-24T03:44:46;6.47;;;1.83;;
5133;SDS011;2585;48.696;10.066;2023-04-24T03:47:12;2.20;;;1.50;;
5133;SDS011;2585;48.696;10.066;2023-04-24T03:49:39;2.37;;;1.97;;
5133;SDS011;2585;48.696;10.066;2023-04-24T03:52:06;1.97;;;1.87;;
5133;SDS011;2585;48.696;10.066;2023-04-24T03:54:33;4.03;;;2.00;;
5133;SDS011;2585;48.696;10.066;2023-04-24T03:57:00;4.23;;;2.40;;
5133;SDS011;2585;48.696;10.066;2023-04-24T03:59:27;3.83;;;2.40;;
5133;SDS011;2585;48.696;10.066;2023-04-24T04:01:54;2.30;;;1.90;;
5133;SDS011;2585;48.696;10.066;2023-04-24T04:04:21;1.70;;;1.60;;
5133;SDS011;2585;48.696;10.066;2023-04-24T04:06:48;1.70;;;1.50;;
5133;SDS011;2585;48.696;10.066;2023-04-24T04:09:15;1.83;;;1.60;;
5133;SDS011;2585;48.696;10.066;2023-04-24T04:11:41;3.70;;;1.70;;
5133;SDS011;2585;48.696;10.066;2023-04-24T04:14:08;1.70;;;1.60;;
5133;SDS011;2585;48.696;10.066;2023-04-24T04:16:35;2.13;;;1.40;;
5133;SDS011;2585;48.696;10.066;2023-04-24T04:19:03;3.03;;;1.87;;
5133;SDS011;2585;48.696;10.066;2023-04-24T04:21:29;1.70;;;1.60;;
5133;SDS011;2585;48.696;10.066;2023-04-24T04:23:57;2.07;;;1.50;;
5133;SDS011;2585;48.696;10.066;2023-04-24T04:26:24;1.63;;;1.30;;
5133;SDS011;2585;48.696;10.066;2023-04-24T04:28:52;1.90;;;1.63;;
5133;SDS011;2585;48.696;10.066;2023-04-24T04:31:19;2.00;;;1.80;;
5133;SDS011;2585;48.696;10.066;2023-04-24T04:33:47;1.53;;;1.30;;
5133;SDS011;2585;48.696;10.066;2023-04-24T04:36:14;1.53;;;1.30;;
5133;SDS011;2585;48.696;10.066;2023-04-24T04:38:40;4.27;;;1.50;;
5133;SDS011;2585;48.696;10.066;2023-04-24T04:41:09;4.37;;;1.83;;
5133;SDS011;2585;48.696;10.066;2023-04-24T04:43:36;2.73;;;1.70;;
5133;SDS011;2585;48.696;10.066;2023-04-24T04:46:05;2.07;;;1.67;;
5133;SDS011;2585;48.696;10.066;2023-04-24T04:48:34;2.70;;;1.90;;
5133;SDS011;2585;48.696;10.066;2023-04-24T04:51:01;3.50;;;2.20;;
5133;SDS011;2585;48.696;10.066;2023-04-24T04:53:28;2.90;;;2.30;;
5133;SDS011;2585;48.696;10.066;2023-04-24T04:55:55;2.30;;;1.97;;
5133;SDS011;2585;48.696;10.066;2023-04-24T04:58:21;2.20;;;2.00;;
5133;SDS011;2585;48.696;10.066;2023-04-24T05:00:48;5.23;;;1.90;;
5133;SDS011;2585;48.696;10.066;2023-04-24T05:03:15;6.43;;;2.00;;
5133;SDS011;2585;48.696;10.066;2023-04-24T05:05:47;7.60;;;2.07;;
5133;SDS011;2585;48.696;10.066;2023-04-24T05:08:13;7.10;;;1.77;;
5133;SDS011;2585;48.696;10.066;2023-04-24T05:10:43;4.90;;;1.80;;
5133;SDS011;2585;48.696;10.066;2023-04-24T05:13:10;4.07;;;2.07;;
5133;SDS011;2585;48.696;10.066;2023-04-24T05:15:39;1.80;;;1.50;;
5133;SDS011;2585;48.696;10.066;2023-04-24T05:18:06;1.53;;;1.40;;
5133;SDS011;2585;48.696;10.066;2023-04-24T05:20:33;3.27;;;1.40;;
5133;SDS011;2585;48.696;10.066;2023-04-24T05:22:59;1.40;;;1.30;;
5133;SDS011;2585;48.696;10.066;2023-04-24T05:25:26;2.00;;;1.50;;
5133;SDS011;2585;48.696;10.066;2023-04-24T05:27:56;2.43;;;1.20;;
5133;SDS011;2585;48.696;10.066;2023-04-24T05:30:23;2.60;;;2.07;;
5133;SDS011;2585;48.696;10.066;2023-04-24T05:32:49;5.50;;;2.10;;
5133;SDS011;2585;48.696;10.066;2023-04-24T05:35:16;2.17;;;1.97;;
5133;SDS011;2585;48.696;10.066;2023-04-24T05:37:44;2.20;;;1.50;;
5133;SDS011;2585;48.696;10.066;2023-04-24T05:40:11;3.33;;;1.40;;
5133;SDS011;2585;48.696;10.066;2023-04-24T05:42:38;4.40;;;1.30;;
5133;SDS011;2585;48.696;10.066;2023-04-24T05:45:05;1.67;;;1.57;;
5133;SDS011;2585;48.696;10.066;2023-04-24T05:47:32;1.93;;;1.73;;
5133;SDS011;2585;48.696;10.066;2023-04-24T05:49:59;5.20;;;1.70;;
5133;SDS011;2585;48.696;10.066;2023-04-24T05:52:26;4.03;;;2.23;;
5133;SDS011;2585;48.696;10.066;2023-04-24T05:54:53;1.80;;;1.60;;
5133;SDS011;2585;48.696;10.066;2023-04-24T05:57:19;1.70;;;1.60;;
5133;SDS011;2585;48.696;10.066;2023-04-24T05:59:46;1.90;;;1.70;;
5133;SDS011;2585;48.696;10.066;2023-04-24T06:02:13;4.47;;;2.03;;
5133;SDS011;2585;48.696;10.066;2023-04-24T06:04:40;7.00;;;2.60;;
5133;SDS011;2585;48.696;10.066;2023-04-24T06:07:07;7.13;;;2.73;;
5133;SDS011;2585;48.696;10.066;2023-04-24T06:09:35;2.50;;;2.20;;
5133;SDS011;2585;48.696;10.066;2023-04-24T06:12:02;2.00;;;1.70;;
5133;SDS011;2585;48.696;10.066;2023-04-24T06:14:29;4.30;;;2.07;;
5133;SDS011;2585;48.696;10.066;2023-04-24T06:16:56;3.77;;;2.60;;
5133;SDS011;2585;48.696;10.066;2023-04-24T06:19:23;3.90;;;2.50;;
5133;SDS011;2585;48.696;10.066;2023-04-24T06:21:50;3.83;;;2.03;;
5133;SDS011;2585;48.696;10.066;2023-04-24T06:24:16;4.67;;;2.23;;
5133;SDS011;2585;48.696;10.066;2023-04-24T06:26:43;2.63;;;1.90;;
5133;SDS011;2585;48.696;10.066;2023-04-24T06:29:10;3.37;;;2.90;;
5133;SDS011;2585;48.696;10.066;2023-04-24T06:31:37;4.83;;;2.00;;
5133;SDS011;2585;48.696;10.066;2023-04-24T06:34:04;3.43;;;2.40;;
5133;SDS011;2585;48.696;10.066;2023-04-24T06:36:31;3.40;;;2.47;;
5133;SDS011;2585;48.696;10.066;2023-04-24T06:39:00;2.60;;;2.30;;
5133;SDS011;2585;48.696;10.066;2023-04-24T06:41:28;4.40;;;2.20;;
5133;SDS011;2585;48.696;10.066;2023-04-24T06:43:55;1.93;;;1.83;;
5133;SDS011;2585;48.696;10.066;2023-04-24T06:46:22;5.80;;;2.17;;
5133;SDS011;2585;48.696;10.066;2023-04-24T06:48:52;2.27;;;1.83;;
5133;SDS011;2585;48.696;10.066;2023-04-24T06:51:23;2.13;;;1.80;;
5133;SDS011;2585;48.696;10.066;2023-04-24T06:53:51;2.80;;;1.80;;
5133;SDS011;2585;48.696;10.066;2023-04-24T06:56:19;3.40;;;2.00;;
5133;SDS011;2585;48.696;10.066;2023-04-24T06:58:46;3.13;;;2.37;;
5133;SDS011;2585;48.696;10.066;2023-04-24T07:01:13;3.10;;;2.17;;
5133;SDS011;2585;48.696;10.066;2023-04-24T07:03:40;2.43;;;1.80;;
5133;SDS011;2585;48.696;10.066;2023-04-24T07:06:07;5.23;;;2.00;;
5133;SDS011;2585;48.696;10.066;2023-04-24T07:08:34;3.70;;;2.00;;
5133;SDS011;2585;48.696;10.066;2023-04-24T07:11:02;2.03;;;1.83;;
5133;SDS011;2585;48.696;10.066;2023-04-24T07:13:29;2.53;;;2.07;;
5133;SDS011;2585;48.696;10.066;2023-04-24T07:15:56;3.70;;;2.40;;
5133;SDS011;2585;48.696;10.066;2023-04-24T07:18:23;5.63;;;2.27;;
5133;SDS011;2585;48.696;10.066;2023-04-24T07:20:50;3.87;;;2.30;;
5133;SDS011;2585;48.696;10.066;2023-04-24T07:23:17;2.50;;;2.17;;
5133;SDS011;2585;48.696;10.066;2023-04-24T07:25:44;3.53;;;2.47;;
5133;SDS011;2585;48.696;10.066;2023-04-24T07:28:11;3.80;;;2.40;;
5133;SDS011;2585;48.696;10.066;2023-04-24T07:30:38;2.00;;;1.73;;
5133;SDS011;2585;48.696;10.066;2023-04-24T07:33:05;3.07;;;1.97;;
5133;SDS011;2585;48.696;10.066;2023-04-24T07:35:33;2.50;;;2.03;;
5133;SDS011;2585;48.696;10.066;2023-04-24T07:38:00;4.33;;;2.40;;
5133;SDS011;2585;48.696;10.066;2023-04-24T07:40:27;3.37;;;2.83;;
5133;SDS011;2585;48.696;10.066;2023-04-24T07:42:54;2.40;;;2.10;;
5133;SDS011;2585;48.696;10.066;2023-04-24T07:45:21;4.97;;;2.67;;
5133;SDS011;2585;48.696;10.066;2023-04-24T07:47:49;4.60;;;2.70;;
5133;SDS011;2585;48.696;10.066;2023-04-24T07:50:17;2.70;;;2.37;;
5133;SDS011;2585;48.696;10.066;2023-04-24T07:52:43;3.20;;;2.30;;
5133;SDS011;2585;48.696;10.066;2023-04-24T07:55:10;5.63;;;2.50;;
5133;SDS011;2585;48.696;10.066;2023-04-24T07:57:37;2.07;;;1.87;;
5133;SDS011;2585;48.696;10.066;2023-04-24T08:00:04;2.73;;;2.37;;
5133;SDS011;2585;48.696;10.066;2023-04-24T08:02:31;2.97;;;2.67;;
5133;SDS011;2585;48.696;10.066;2023-04-24T08:04:59;3.00;;;2.10;;
5133;SDS011;2585;48.696;10.066;2023-04-24T08:07:26;3.30;;;2.10;;
5133;SDS011;2585;48.696;10.066;2023-04-24T08:09:53;3.67;;;2.17;;
5133;SDS011;2585;48.696;10.066;2023-04-24T08:12:20;3.50;;;2.07;;
5133;SDS011;2585;48.696;10.066;2023-04-24T08:14:46;2.27;;;1.97;;
5133;SDS011;2585;48.696;10.066;2023-04-24T08:17:13;3.00;;;2.57;;
5133;SDS011;2585;48.696;10.066;2023-04-24T08:19:40;3.03;;;2.23;;
5133;SDS011;2585;48.696;10.066;2023-04-24T08:22:14;3.70;;;2.60;;
5133;SDS011;2585;48.696;10.066;2023-04-24T08:24:41;3.10;;;2.03;;
5133;SDS011;2585;48.696;10.066;2023-04-24T08:27:08;2.57;;;2.03;;
5133;SDS011;2585;48.696;10.066;2023-04-24T08:29:35;3.60;;;2.10;;
5133;SDS011;2585;48.696;10.066;2023-04-24T08:32:02;5.67;;;2.00;;
5133;SDS011;2585;48.696;10.066;2023-04-24T08:34:29;3.23;;;1.90;;
5133;SDS011;2585;48.696;10.066;2023-04-24T08:36:56;2.20;;;2.00;;
5133;SDS011;2585;48.696;10.066;2023-04-24T08:39:23;1.70;;;1.60;;
5133;SDS011;2585;48.696;10.066;2023-04-24T08:41:49;1.90;;;1.80;;
5133;SDS011;2585;48.696;10.066;2023-04-24T08:44:18;2.70;;;1.60;;
5133;SDS011;2585;48.696;10.066;2023-04-24T08:46:46;3.67;;;1.67;;
5133;SDS011;2585;48.696;10.066;2023-04-24T08:49:14;1.60;;;1.50;;
5133;SDS011;2585;48.696;10.066;2023-04-24T08:51:44;4.57;;;1.90;;
5133;SDS011;2585;48.696;10.066;2023-04-24T08:54:13;3.33;;;1.63;;
5133;SDS011;2585;48.696;10.066;2023-04-24T08:56:40;2.00;;;1.80;;
5133;SDS011;2585;48.696;10.066;2023-04-24T08:59:11;1.60;;;1.40;;
5133;SDS011;2585;48.696;10.066;2023-04-24T09:01:38;1.80;;;1.67;;
5133;SDS011;2585;48.696;10.066;2023-04-24T09:04:09;3.60;;;1.90;;
5133;SDS011;2585;48.696;10.066;2023-04-24T09:06:39;2.50;;;1.90;;
5133;SDS011;2585;48.696;10.066;2023-04-24T09:09:06;3.30;;;1.80;;
5133;SDS011;2585;48.696;10.066;2023-04-24T09:11:34;1.77;;;1.67;;
5133;SDS011;2585;48.696;10.066;2023-04-24T09:14:02;2.03;;;1.93;;
5133;SDS011;2585;48.696;10.066;2023-04-24T09:16:30;2.20;;;1.83;;
5133;SDS011;2585;48.696;10.066;2023-04-24T09:19:01;3.43;;;1.93;;
5133;SDS011;2585;48.696;10.066;2023-04-24T09:21:33;2.20;;;1.70;;
5133;SDS011;2585;48.696;10.066;2023-04-24T09:24:03;2.43;;;1.63;;
5133;SDS011;2585;48.696;10.066;2023-04-24T09:26:36;1.83;;;1.63;;
5133;SDS011;2585;48.696;10.066;2023-04-24T09:29:03;2.93;;;1.80;;
5133;SDS011;2585;48.696;10.066;2023-04-24T09:31:30;3.73;;;1.60;;
5133;SDS011;2585;48.696;10.066;2023-04-24T09:33:58;3.10;;;1.67;;
5133;SDS011;2585;48.696;10.066;2023-04-24T09:36:29;1.40;;;1.30;;
5133;SDS011;2585;48.696;10.066;2023-04-24T09:39:04;1.90;;;1.80;;
5133;SDS011;2585;48.696;10.066;2023-04-24T09:41:32;3.23;;;1.60;;
5133;SDS011;2585;48.696;10.066;2023-04-24T09:44:15;2.13;;;1.60;;
5133;SDS011;2585;48.696;10.066;2023-04-24T09:46:49;2.23;;;1.73;;
5133;SDS011;2585;48.696;10.066;2023-04-24T09:49:21;3.43;;;1.63;;
5133;SDS011;2585;48.696;10.066;2023-04-24T09:51:50;1.60;;;1.50;;
5133;SDS011;2585;48.696;10.066;2023-04-24T09:54:18;1.67;;;1.27;;
5133;SDS011;2585;48.696;10.066;2023-04-24T09:56:51;1.83;;;1.50;;
5133;SDS011;2585;48.696;10.066;2023-04-24T09:59:18;2.63;;;1.60;;
5133;SDS011;2585;48.696;10.066;2023-04-24T10:01:46;2.50;;;1.43;;
5133;SDS011;2585;48.696;10.066;2023-04-24T10:04:18;1.63;;;1.53;;
5133;SDS011;2585;48.696;10.066;2023-04-24T10:06:51;2.10;;;1.70;;
5133;SDS011;2585;48.696;10.066;2023-04-24T10:09:19;2.30;;;1.73;;
5133;SDS011;2585;48.696;10.066;2023-04-24T10:11:50;2.70;;;1.90;;
5133;SDS011;2585;48.696;10.066;2023-04-24T10:14:23;1.87;;;1.57;;
5133;SDS011;2585;48.696;10.066;2023-04-24T10:16:52;3.63;;;1.60;;
5133;SDS011;2585;48.696;10.066;2023-04-24T10:19:20;1.97;;;1.40;;
5133;SDS011;2585;48.696;10.066;2023-04-24T10:21:49;3.67;;;2.00;;
5133;SDS011;2585;48.696;10.066;2023-04-24T10:24:16;2.77;;;1.47;;
5133;SDS011;2585;48.696;10.066;2023-04-24T10:26:45;2.27;;;2.00;;
5133;SDS011;2585;48.696;10.066;2023-04-24T10:29:15;1.90;;;1.80;;
5133;SDS011;2585;48.696;10.066;2023-04-24T10:31:43;2.13;;;1.60;;
5133;SDS011;2585;48.696;10.066;2023-04-24T10:34:14;1.70;;;1.60;;
5133;SDS011;2585;48.696;10.066;2023-04-24T10:36:44;2.90;;;1.40;;
5133;SDS011;2585;48.696;10.066;2023-04-24T10:39:14;1.73;;;1.63;;
5133;SDS011;2585;48.696;10.066;2023-04-24T10:41:42;2.60;;;1.60;;
5133;SDS011;2585;48.696;10.066;2023-04-24T10:44:13;4.30;;;1.50;;
5133;SDS011;2585;48.696;10.066;2023-04-24T10:46:45;2.37;;;1.47;;
5133;SDS011;2585;48.696;10.066;2023-04-24T10:49:14;2.70;;;1.70;;
5133;SDS011;2585;48.696;10.066;2023-04-24T10:54:22;2.67;;;1.90;;
5133;SDS011;2585;48.696;10.066;2023-04-24T10:57:25;2.20;;;1.53;;
5133;SDS011;2585;48.696;10.066;2023-04-24T10:59:50;1.60;;;1.40;;
5133;SDS011;2585;48.696;10.066;2023-04-24T11:02:38;3.50;;;1.40;;
5133;SDS011;2585;48.696;10.066;2023-04-24T11:05:09;6.20;;;1.80;;
5133;SDS011;2585;48.696;10.066;2023-04-24T11:10:46;2.13;;;1.27;;
5133;SDS011;2585;48.696;10.066;2023-04-24T11:13:23;4.43;;;1.70;;
5133;SDS011;2585;48.696;10.066;2023-04-24T11:18:52;4.10;;;1.27;;
5133;SDS011;2585;48.696;10.066;2023-04-24T11:21:30;1.63;;;1.53;;
5133;SDS011;2585;48.696;10.066;2023-04-24T11:23:58;2.33;;;1.40;;
5133;SDS011;2585;48.696;10.066;2023-04-24T11:26:47;4.47;;;1.60;;
5133;SDS011;2585;48.696;10.066;2023-04-24T11:29:13;2.50;;;1.60;;
5133;SDS011;2585;48.696;10.066;2023-04-24T11:31:45;5.33;;;1.43;;
5133;SDS011;2585;48.696;10.066;2023-04-24T11:34:16;3.80;;;1.60;;
5133;SDS011;2585;48.696;10.066;2023-04-24T11:36:46;1.77;;;1.20;;
5133;SDS011;2585;48.696;10.066;2023-04-24T11:39:14;1.87;;;1.60;;
5133;SDS011;2585;48.696;10.066;2023-04-24T11:41:41;1.60;;;1.50;;
5133;SDS011;2585;48.696;10.066;2023-04-24T11:44:11;1.60;;;1.40;;
5133;SDS011;2585;48.696;10.066;2023-04-24T11:46:39;4.20;;;1.30;;
5133;SDS011;2585;48.696;10.066;2023-04-24T11:49:06;1.83;;;1.60;;
5133;SDS011;2585;48.696;10.066;2023-04-24T11:51:33;1.53;;;1.40;;
5133;SDS011;2585;48.696;10.066;2023-04-24T11:54:18;2.90;;;1.10;;
5133;SDS011;2585;48.696;10.066;2023-04-24T11:56:46;1.10;;;1.00;;
5133;SDS011;2585;48.696;10.066;2023-04-24T11:59:14;2.70;;;1.50;;
5133;SDS011;2585;48.696;10.066;2023-04-24T12:01:44;2.07;;;1.50;;
5133;SDS011;2585;48.696;10.066;2023-04-24T12:04:15;1.20;;;1.10;;
5133;SDS011;2585;48.696;10.066;2023-04-24T12:06:59;2.10;;;1.10;;
5133;SDS011;2585;48.696;10.066;2023-04-24T12:09:39;1.30;;;1.20;;
5133;SDS011;2585;48.696;10.066;2023-04-24T12:12:07;1.77;;;1.27;;
5133;SDS011;2585;48.696;10.066;2023-04-24T12:14:52;1.80;;;1.20;;
5133;SDS011;2585;48.696;10.066;2023-04-24T12:17:26;2.60;;;1.20;;
5133;SDS011;2585;48.696;10.066;2023-04-24T12:20:00;3.23;;;1.60;;
5133;SDS011;2585;48.696;10.066;2023-04-24T12:22:45;1.57;;;1.30;;
5133;SDS011;2585;48.696;10.066;2023-04-24T12:25:13;1.30;;;1.20;;
5133;SDS011;2585;48.696;10.066;2023-04-24T12:27:42;1.73;;;1.30;;
5133;SDS011;2585;48.696;10.066;2023-04-24T12:30:14;1.63;;;1.37;;
5133;SDS011;2585;48.696;10.066;2023-04-24T12:32:43;2.20;;;1.40;;
5133;SDS011;2585;48.696;10.066;2023-04-24T12:35:11;2.50;;;1.33;;
5133;SDS011;2585;48.696;10.066;2023-04-24T12:37:41;1.43;;;1.30;;
5133;SDS011;2585;48.696;10.066;2023-04-24T12:40:12;1.57;;;1.47;;
5133;SDS011;2585;48.696;10.066;2023-04-24T12:42:49;1.87;;;1.40;;
5133;SDS011;2585;48.696;10.066;2023-04-24T12:45:18;1.73;;;1.50;;
5133;SDS011;2585;48.696;10.066;2023-04-24T12:47:45;2.20;;;1.20;;
5133;SDS011;2585;48.696;10.066;2023-04-24T12:50:13;1.50;;;1.40;;
5133;SDS011;2585;48.696;10.066;2023-04-24T12:52:42;3.07;;;2.10;;
5133;SDS011;2585;48.696;10.066;2023-04-24T12:55:09;1.37;;;1.27;;
5133;SDS011;2585;48.696;10.066;2023-04-24T12:57:38;4.50;;;1.37;;
5133;SDS011;2585;48.696;10.066;2023-04-24T13:00:06;3.43;;;1.60;;
5133;SDS011;2585;48.696;10.066;2023-04-24T13:02:34;3.13;;;1.53;;
5133;SDS011;2585;48.696;10.066;2023-04-24T13:05:01;3.17;;;1.33;;
5133;SDS011;2585;48.696;10.066;2023-04-24T13:07:29;1.47;;;1.37;;
5133;SDS011;2585;48.696;10.066;2023-04-24T13:09:56;1.90;;;1.50;;
5133;SDS011;2585;48.696;10.066;2023-04-24T13:12:24;1.67;;;1.47;;
5133;SDS011;2585;48.696;10.066;2023-04-24T13:14:52;1.87;;;1.23;;
5133;SDS011;2585;48.696;10.066;2023-04-24T13:17:19;2.67;;;1.40;;
5133;SDS011;2585;48.696;10.066;2023-04-24T13:19:46;1.50;;;1.10;;
5133;SDS011;2585;48.696;10.066;2023-04-24T13:22:16;1.60;;;1.17;;
5133;SDS011;2585;48.696;10.066;2023-04-24T13:24:44;2.57;;;1.60;;
5133;SDS011;2585;48.696;10.066;2023-04-24T13:27:11;1.63;;;1.17;;
5133;SDS011;2585;48.696;10.066;2023-04-24T13:29:38;2.50;;;1.50;;
5133;SDS011;2585;48.696;10.066;2023-04-24T13:32:05;1.30;;;1.20;;
5133;SDS011;2585;48.696;10.066;2023-04-24T13:34:32;2.27;;;1.50;;
5133;SDS011;2585;48.696;10.066;2023-04-24T13:37:00;1.30;;;1.20;;
5133;SDS011;2585;48.696;10.066;2023-04-24T13:39:30;3.13;;;1.43;;
5133;SDS011;2585;48.696;10.066;2023-04-24T13:41:57;2.83;;;1.63;;
5133;SDS011;2585;48.696;10.066;2023-04-24T13:44:24;4.07;;;1.83;;
5133;SDS011;2585;48.696;10.066;2023-04-24T13:46:53;2.40;;;1.47;;
5133;SDS011;2585;48.696;10.066;2023-04-24T13:49:23;1.87;;;1.40;;
5133;SDS011;2585;48.696;10.066;2023-04-24T13:51:51;1.47;;;1.37;;
5133;SDS011;2585;48.696;10.066;2023-04-24T13:54:19;2.57;;;1.80;;
5133;SDS011;2585;48.696;10.066;2023-04-24T13:56:46;2.07;;;1.40;;
5133;SDS011;2585;48.696;10.066;2023-04-24T13:59:13;3.10;;;1.87;;
5133;SDS011;2585;48.696;10.066;2023-04-24T14:01:39;1.67;;;1.30;;
5133;SDS011;2585;48.696;10.066;2023-04-24T14:04:06;1.53;;;1.30;;
5133;SDS011;2585;48.696;10.066;2023-04-24T14:06:33;1.27;;;1.17;;
5133;SDS011;2585;48.696;10.066;2023-04-24T14:09:00;1.40;;;1.20;;
5133;SDS011;2585;48.696;10.066;2023-04-24T14:11:27;1.40;;;1.17;;
5133;SDS011;2585;48.696;10.066;2023-04-24T14:13:54;5.37;;;1.50;;
5133;SDS011;2585;48.696;10.066;2023-04-24T14:16:22;2.50;;;1.27;;
5133;SDS011;2585;48.696;10.066;2023-04-24T14:18:49;2.03;;;1.60;;
5133;SDS011;2585;48.696;10.066;2023-04-24T14:21:16;1.60;;;1.50;;
5133;SDS011;2585;48.696;10.066;2023-04-24T14:23:43;2.13;;;1.50;;
5133;SDS011;2585;48.696;10.066;2023-04-24T14:26:10;1.90;;;1.30;;
5133;SDS011;2585;48.696;10.066;2023-04-24T14:28:37;2.93;;;1.70;;
5133;SDS011;2585;48.696;10.066;2023-04-24T14:31:04;3.47;;;1.63;;
5133;SDS011;2585;48.696;10.066;2023-04-24T14:33:31;2.03;;;1.37;;
5133;SDS011;2585;48.696;10.066;2023-04-24T14:35:58;1.53;;;1.30;;
5133;SDS011;2585;48.696;10.066;2023-04-24T14:38:24;5.07;;;1.80;;
5133;SDS011;2585;48.696;10.066;2023-04-24T14:40:51;2.17;;;1.70;;
5133;SDS011;2585;48.696;10.066;2023-04-24T14:43:32;1.83;;;1.47;;
5133;SDS011;2585;48.696;10.066;2023-04-24T14:46:02;3.47;;;2.33;;
5133;SDS011;2585;48.696;10.066;2023-04-24T14:48:29;1.87;;;1.40;;
5133;SDS011;2585;48.696;10.066;2023-04-24T14:50:56;4.83;;;1.60;;
5133;SDS011;2585;48.696;10.066;2023-04-24T14:53:23;2.10;;;1.40;;
5133;SDS011;2585;48.696;10.066;2023-04-24T14:55:50;2.07;;;1.50;;
5133;SDS011;2585;48.696;10.066;2023-04-24T14:58:17;1.50;;;1.40;;
5133;SDS011;2585;48.696;10.066;2023-04-24T15:00:44;1.77;;;1.60;;
5133;SDS011;2585;48.696;10.066;2023-04-24T15:03:10;2.03;;;1.57;;
5133;SDS011;2585;48.696;10.066;2023-04-24T15:05:37;3.73;;;1.53;;
5133;SDS011;2585;48.696;10.066;2023-04-24T15:08:05;4.73;;;2.30;;
5133;SDS011;2585;48.696;10.066;2023-04-24T15:10:31;4.30;;;1.77;;
5133;SDS011;2585;48.696;10.066;2023-04-24T15:12:59;2.90;;;1.27;;
5133;SDS011;2585;48.696;10.066;2023-04-24T15:15:26;4.00;;;2.10;;